Time;durP1;ratioP1;P1;durP2;ratioP2;P2;SDS_P1;SDS_P2;PMS_P1;PMS_P2;Temp;Humidity;BMP_temperature;BMP_pressure;BME280_temperature;BME280_humidity;BME280_pressure;Samples;Min_cycle;Max_cycle;Signal;HPM_P1;HPM_P2
2023/12/25 00:01:23;;;;;;;;;;;11.20;99.90;;;;;;2610788;50;20477;-75
2023/12/25 00:03:52;;;;;;;;;;;11.20;99.90;;;;;;2613573;54;20488;-75
2023/12/25 00:06:22;;;;;;;;;;;11.20;99.90;;;;;;2617389;47;19942;-75
2023/12/25 00:08:52;;;;;;;;;;;11.20;99.90;;;;;;2616227;47;19950;-75
2023/12/25 00:11:25;;;;;;;;;;;11.20;99.90;;;;;;2616790;54;19955;-75
2023/12/25 00:16:25;;;;;;;;;;;11.20;99.90;;;;;;2613776;47;19947;-74
2023/12/25 00:18:58;;;;;;;;;;;11.20;99.90;;;;;;2615186;54;20458;-75
2023/12/25 00:21:29;;;;;;;;;;;11.20;99.90;;;;;;2615869;47;19945;-75
2023/12/25 00:23:59;;;;;;;;;;;11.20;99.90;;;;;;2615798;47;19938;-74
2023/12/25 00:26:32;;;;;;;;;;;11.20;99.90;;;;;;2617661;48;19938;-74
2023/12/25 00:29:02;;;;;;;;;;;11.20;99.90;;;;;;2624968;54;19946;-74
2023/12/25 00:31:32;;;;;;;;;;;11.20;99.90;;;;;;2625401;54;20553;-75
2023/12/25 00:34:02;;;;;;;;;;;11.30;99.90;;;;;;2617893;47;20721;-75
2023/12/25 00:36:32;;;;;;;;;;;11.30;99.90;;;;;;2614417;54;19959;-75
2023/12/25 00:39:02;;;;;;;;;;;11.20;99.90;;;;;;2614801;54;19950;-75
2023/12/25 00:41:34;;;;;;;;;;;11.20;99.90;;;;;;2616571;39;20362;-74
2023/12/25 00:44:05;;;;;;;;;;;11.30;99.90;;;;;;2615917;39;20442;-75
2023/12/25 00:46:35;;;;;;;;;;;11.20;99.90;;;;;;2614234;51;19947;-75
2023/12/25 00:49:05;;;;;;;;;;;11.30;99.90;;;;;;2619359;54;19954;-75
2023/12/25 00:51:35;;;;;;;;;;;11.20;99.90;;;;;;2620703;54;19962;-74
2023/12/25 00:54:05;;;;;;;;;;;11.30;99.90;;;;;;2617717;46;19977;-75
2023/12/25 00:56:38;;;;;;;;;;;11.30;99.90;;;;;;2613806;54;19950;-75
2023/12/25 00:59:11;;;;;;;;;;;11.30;99.90;;;;;;2611499;47;19953;-76
2023/12/25 01:01:41;;;;;;;;;;;11.30;99.90;;;;;;2612980;54;19939;-74
2023/12/25 01:04:11;;;;;;;;;;;11.30;99.90;;;;;;2614668;39;20377;-74
2023/12/25 01:06:41;;;;;;;;;;;11.30;99.90;;;;;;2618331;54;19950;-75
2023/12/25 01:09:10;;;;;;;;;;;11.30;99.90;;;;;;2619275;39;20480;-75
2023/12/25 01:11:45;;;;;;;;;;;11.30;99.90;;;;;;2619735;47;20006;-74
2023/12/25 01:14:15;;;;;;;;;;;11.30;99.90;;;;;;2619690;47;19946;-74
2023/12/25 01:16:45;;;;;;;;;;;11.30;99.90;;;;;;2619482;54;19946;-73
2023/12/25 01:19:16;;;;;;;;;;;11.30;99.90;;;;;;2617153;54;20041;-75
2023/12/25 01:21:46;;;;;;;;;;;11.30;99.90;;;;;;2613114;50;19945;-75
2023/12/25 01:24:16;;;;;;;;;;;11.30;99.90;;;;;;2615704;47;19951;-74
2023/12/25 01:26:49;;;;;;;;;;;11.30;99.90;;;;;;2617612;39;20327;-74
2023/12/25 01:29:19;;;;;;;;;;;11.30;99.90;;;;;;2617603;54;19941;-75
2023/12/25 01:31:49;;;;;;;;;;;11.30;99.90;;;;;;2617164;54;19987;-74
2023/12/25 01:34:19;;;;;;;;;;;11.30;99.90;;;;;;2616083;47;19955;-73
2023/12/25 01:36:49;;;;;;;;;;;11.30;99.90;;;;;;2616517;47;20802;-73
2023/12/25 01:39:18;;;;;;;;;;;11.30;99.90;;;;;;2625657;54;19945;-75
2023/12/25 01:41:51;;;;;;;;;;;11.30;99.90;;;;;;2628952;54;19951;-73
2023/12/25 01:44:21;;;;;;;;;;;11.30;99.90;;;;;;2617172;54;19942;-74
2023/12/25 01:46:55;;;;;;;;;;;11.30;99.90;;;;;;2617774;47;19947;-75
2023/12/25 01:49:25;;;;;;;;;;;11.30;99.90;;;;;;2616000;54;19986;-75
2023/12/25 01:51:56;;;;;;;;;;;11.50;99.90;;;;;;2616767;39;20346;-74
2023/12/25 01:54:26;;;;;;;;;;;11.30;99.90;;;;;;2616445;49;19950;-76
2023/12/25 01:56:58;;;;;;;;;;;11.30;99.90;;;;;;2616889;54;19962;-75
2023/12/25 01:59:30;;;;;;;;;;;11.40;99.90;;;;;;2617596;47;19959;-74
2023/12/25 02:02:00;;;;;;;;;;;11.40;99.90;;;;;;2617183;54;20727;-74
2023/12/25 02:04:30;;;;;;;;;;;11.40;99.90;;;;;;2616771;47;19934;-74
2023/12/25 02:07:01;;;;;;;;;;;11.40;99.90;;;;;;2615954;54;20077;-74
2023/12/25 02:09:31;;;;;;;;;;;11.30;99.90;;;;;;2616613;54;19934;-76
2023/12/25 02:12:04;;;;;;;;;;;11.40;99.90;;;;;;2615873;54;20466;-77
2023/12/25 02:14:34;;;;;;;;;;;11.30;99.90;;;;;;2615609;54;19946;-75
2023/12/25 02:19:40;;;;;;;;;;;11.40;99.90;;;;;;2604443;54;19950;-77
2023/12/25 02:22:11;;;;;;;;;;;11.40;99.90;;;;;;2616415;54;19954;-75
2023/12/25 02:24:43;;;;;;;;;;;11.40;99.90;;;;;;2619652;47;19994;-77
2023/12/25 02:27:16;;;;;;;;;;;11.40;99.90;;;;;;2628719;47;19957;-76
2023/12/25 02:29:46;;;;;;;;;;;11.40;99.90;;;;;;2628972;54;19943;-75
2023/12/25 02:32:16;;;;;;;;;;;11.40;99.90;;;;;;2622794;54;19982;-74
2023/12/25 02:34:47;;;;;;;;;;;11.40;99.90;;;;;;2617843;54;19935;-73
2023/12/25 02:37:17;;;;;;;;;;;11.30;99.90;;;;;;2618424;47;20487;-74
2023/12/25 02:39:47;;;;;;;;;;;11.30;99.90;;;;;;2618044;39;20399;-75
2023/12/25 02:42:19;;;;;;;;;;;11.40;99.90;;;;;;2618483;54;19953;-75
2023/12/25 02:44:49;;;;;;;;;;;11.30;99.90;;;;;;2617912;47;19950;-74
2023/12/25 02:47:19;;;;;;;;;;;11.30;99.90;;;;;;2618836;39;20349;-74
2023/12/25 02:49:49;;;;;;;;;;;11.30;99.90;;;;;;2618063;47;20554;-74
2023/12/25 02:52:19;;;;;;;;;;;11.30;99.90;;;;;;2618265;47;19934;-74
2023/12/25 02:54:49;;;;;;;;;;;11.30;99.90;;;;;;2617886;47;20422;-74
2023/12/25 02:57:21;;;;;;;;;;;11.30;99.90;;;;;;2618380;46;19950;-74
2023/12/25 02:59:51;;;;;;;;;;;11.30;99.90;;;;;;2617587;54;19958;-74
2023/12/25 03:02:21;;;;;;;;;;;11.30;99.90;;;;;;2618388;54;19981;-74
2023/12/25 03:04:51;;;;;;;;;;;11.30;99.90;;;;;;2618570;54;19935;-73
2023/12/25 03:07:21;;;;;;;;;;;11.30;99.90;;;;;;2620545;47;20430;-73
2023/12/25 03:09:51;;;;;;;;;;;11.30;99.90;;;;;;2617916;47;20457;-74
2023/12/25 03:12:23;;;;;;;;;;;11.30;99.90;;;;;;2618025;47;20445;-74
2023/12/25 03:14:53;;;;;;;;;;;11.30;99.90;;;;;;2618168;47;19973;-74
2023/12/25 03:17:23;;;;;;;;;;;11.30;99.90;;;;;;2618689;54;19950;-77
2023/12/25 03:19:53;;;;;;;;;;;11.30;99.90;;;;;;2617830;46;19973;-77
2023/12/25 03:22:24;;;;;;;;;;;11.30;99.90;;;;;;2617421;47;20002;-75
2023/12/25 03:24:54;;;;;;;;;;;11.30;99.90;;;;;;2618122;54;20532;-75
2023/12/25 03:27:26;;;;;;;;;;;11.30;99.90;;;;;;2618356;47;19950;-75
2023/12/25 03:29:56;;;;;;;;;;;11.30;99.90;;;;;;2617243;47;19955;-74
2023/12/25 03:32:26;;;;;;;;;;;11.30;99.90;;;;;;2619241;54;19951;-74
2023/12/25 03:34:56;;;;;;;;;;;11.30;99.90;;;;;;2622681;39;20617;-74
2023/12/25 03:37:26;;;;;;;;;;;11.30;99.90;;;;;;2630652;47;19938;-74
2023/12/25 03:39:57;;;;;;;;;;;11.30;99.90;;;;;;2623341;47;19946;-74
2023/12/25 03:42:29;;;;;;;;;;;11.30;99.90;;;;;;2618054;47;19950;-75
2023/12/25 03:44:59;;;;;;;;;;;11.30;99.90;;;;;;2617674;54;19954;-74
2023/12/25 03:47:28;;;;;;;;;;;11.30;99.90;;;;;;2618663;39;20500;-74
2023/12/25 03:49:58;;;;;;;;;;;11.30;99.90;;;;;;2617655;51;20446;-75
2023/12/25 03:52:28;;;;;;;;;;;11.30;99.90;;;;;;2617594;54;19973;-75
2023/12/25 03:54:58;;;;;;;;;;;11.30;99.90;;;;;;2617569;39;20045;-74
2023/12/25 03:57:30;;;;;;;;;;;11.30;99.90;;;;;;2617337;46;20074;-74
2023/12/25 04:00:00;;;;;;;;;;;11.30;99.90;;;;;;2616876;47;19947;-73
2023/12/25 04:02:30;;;;;;;;;;;11.40;99.90;;;;;;2617145;39;20389;-74
2023/12/25 04:05:00;;;;;;;;;;;11.30;99.90;;;;;;2616599;54;19951;-74
2023/12/25 04:07:30;;;;;;;;;;;11.40;99.90;;;;;;2616142;54;19935;-74
2023/12/25 04:10:00;;;;;;;;;;;11.40;99.90;;;;;;2621457;54;19939;-74
2023/12/25 04:12:33;;;;;;;;;;;11.40;99.90;;;;;;2619006;54;19942;-74
2023/12/25 04:15:03;;;;;;;;;;;11.50;99.90;;;;;;2620391;54;20122;-75
2023/12/25 04:17:33;;;;;;;;;;;11.50;99.90;;;;;;2621377;47;20020;-74
2023/12/25 04:20:03;;;;;;;;;;;11.50;99.90;;;;;;2620189;54;19946;-74
2023/12/25 04:22:33;;;;;;;;;;;11.50;99.90;;;;;;2617525;54;19947;-73
2023/12/25 04:25:03;;;;;;;;;;;11.50;99.90;;;;;;2615983;47;20468;-74
2023/12/25 04:27:35;;;;;;;;;;;11.50;99.90;;;;;;2617879;54;20489;-74
2023/12/25 04:30:05;;;;;;;;;;;11.50;99.90;;;;;;2621751;54;19938;-74
2023/12/25 04:32:35;;;;;;;;;;;11.50;99.90;;;;;;2620715;47;19947;-74
2023/12/25 04:35:05;;;;;;;;;;;11.50;99.90;;;;;;2618159;54;19973;-73
2023/12/25 04:37:35;;;;;;;;;;;11.50;99.90;;;;;;2618220;54;19950;-74
2023/12/25 04:40:06;;;;;;;;;;;11.50;99.90;;;;;;2619406;47;19946;-74
2023/12/25 04:42:38;;;;;;;;;;;11.50;99.90;;;;;;2618438;47;19954;-74
2023/12/25 04:45:09;;;;;;;;;;;11.50;99.90;;;;;;2623557;47;19939;-73
2023/12/25 04:47:39;;;;;;;;;;;11.50;99.90;;;;;;2630134;47;19938;-74
2023/12/25 04:50:09;;;;;;;;;;;11.50;99.90;;;;;;2620502;47;19942;-74
2023/12/25 04:52:39;;;;;;;;;;;11.50;99.90;;;;;;2617246;54;19965;-74
2023/12/25 04:55:09;;;;;;;;;;;11.50;99.90;;;;;;2616789;50;19934;-74
2023/12/25 04:57:42;;;;;;;;;;;11.50;99.90;;;;;;2617615;47;19983;-73
2023/12/25 05:00:12;;;;;;;;;;;11.50;99.90;;;;;;2617702;54;20470;-74
2023/12/25 05:02:42;;;;;;;;;;;11.40;99.90;;;;;;2618201;54;20426;-73
2023/12/25 05:05:12;;;;;;;;;;;11.50;99.90;;;;;;2617911;47;20398;-74
2023/12/25 05:07:42;;;;;;;;;;;11.50;99.90;;;;;;2618165;39;20368;-74
2023/12/25 05:10:12;;;;;;;;;;;11.40;99.90;;;;;;2617363;39;20485;-75
2023/12/25 05:12:44;;;;;;;;;;;11.40;99.90;;;;;;2617878;54;20433;-75
2023/12/25 05:15:14;;;;;;;;;;;11.40;99.90;;;;;;2618770;39;20354;-75
2023/12/25 05:20:30;;;;;;;;;;;11.50;99.90;;;;;;2617505;54;19948;-75
2023/12/25 05:23:00;;;;;;;;;;;11.40;99.90;;;;;;2617630;47;19947;-76
2023/12/25 05:25:31;;;;;;;;;;;11.40;99.90;;;;;;2619750;54;19953;-74
2023/12/25 05:28:03;;;;;;;;;;;11.40;99.90;;;;;;2619460;47;19954;-73
2023/12/25 05:30:33;;;;;;;;;;;11.50;99.90;;;;;;2618670;39;20341;-74
2023/12/25 05:33:03;;;;;;;;;;;11.50;99.90;;;;;;2617553;54;19947;-73
2023/12/25 05:35:34;;;;;;;;;;;11.50;99.90;;;;;;2617748;54;19943;-74
2023/12/25 05:38:04;;;;;;;;;;;11.60;99.90;;;;;;2618355;51;20055;-73
2023/12/25 05:40:34;;;;;;;;;;;11.50;99.90;;;;;;2617663;47;19989;-73
2023/12/25 05:43:10;;;;;;;;;;;11.50;99.90;;;;;;2618328;47;19951;-74
2023/12/25 05:45:40;;;;;;;;;;;11.50;99.90;;;;;;2618908;54;19949;-73
2023/12/25 05:48:10;;;;;;;;;;;11.50;99.90;;;;;;2621070;47;19985;-74
2023/12/25 05:50:40;;;;;;;;;;;11.40;99.90;;;;;;2619133;39;20380;-73
2023/12/25 05:53:11;;;;;;;;;;;11.40;99.90;;;;;;2624808;54;20001;-76
2023/12/25 05:55:40;;;;;;;;;;;11.40;99.90;;;;;;2630597;54;19938;-76
2023/12/25 05:58:13;;;;;;;;;;;11.40;99.90;;;;;;2621102;47;19954;-74
2023/12/25 06:00:43;;;;;;;;;;;11.40;99.90;;;;;;2618792;47;20509;-77
2023/12/25 06:03:12;;;;;;;;;;;11.40;99.90;;;;;;2617567;54;19945;-76
2023/12/25 06:05:43;;;;;;;;;;;11.30;99.90;;;;;;2618781;47;19947;-75
2023/12/25 06:08:13;;;;;;;;;;;11.30;99.90;;;;;;2618369;54;19982;-74
2023/12/25 06:10:43;;;;;;;;;;;11.30;99.90;;;;;;2619027;39;20446;-75
2023/12/25 06:13:15;;;;;;;;;;;11.30;99.90;;;;;;2617487;46;19941;-75
2023/12/25 06:15:45;;;;;;;;;;;11.30;99.90;;;;;;2618206;47;19969;-75
2023/12/25 06:18:15;;;;;;;;;;;11.30;99.90;;;;;;2619627;47;19946;-75
2023/12/25 06:20:46;;;;;;;;;;;11.20;99.90;;;;;;2618496;54;19946;-74
2023/12/25 06:23:16;;;;;;;;;;;11.30;99.90;;;;;;2621038;47;19939;-74
2023/12/25 06:25:46;;;;;;;;;;;11.30;99.90;;;;;;2617420;54;19951;-74
2023/12/25 06:28:18;;;;;;;;;;;11.20;99.90;;;;;;2620461;54;19942;-74
2023/12/25 06:30:51;;;;;;;;;;;11.20;99.90;;;;;;2621647;54;19938;-74
2023/12/25 06:33:21;;;;;;;;;;;11.20;99.90;;;;;;2619209;47;19938;-73
2023/12/25 06:35:51;;;;;;;;;;;11.20;99.90;;;;;;2619717;47;20022;-75
2023/12/25 06:38:21;;;;;;;;;;;11.20;99.90;;;;;;2620980;50;19935;-75
2023/12/25 06:40:52;;;;;;;;;;;11.10;99.90;;;;;;2618142;47;19969;-75
2023/12/25 06:43:24;;;;;;;;;;;11.10;99.90;;;;;;2618085;54;19942;-75
2023/12/25 06:45:54;;;;;;;;;;;11.00;99.90;;;;;;2618153;47;19958;-77
2023/12/25 06:48:24;;;;;;;;;;;11.00;99.90;;;;;;2620530;54;19961;-76
2023/12/25 06:50:54;;;;;;;;;;;11.00;99.90;;;;;;2619584;54;19955;-75
2023/12/25 06:53:24;;;;;;;;;;;11.00;99.90;;;;;;2618292;47;20499;-76
2023/12/25 06:55:54;;;;;;;;;;;11.00;99.90;;;;;;2618563;54;19947;-75
2023/12/25 06:58:27;;;;;;;;;;;10.90;99.90;;;;;;2620037;39;20353;-75
2023/12/25 07:00:59;;;;;;;;;;;10.90;99.90;;;;;;2629896;54;19950;-77
2023/12/25 07:03:29;;;;;;;;;;;10.90;99.90;;;;;;2627917;51;20464;-76
2023/12/25 07:05:59;;;;;;;;;;;10.80;99.90;;;;;;2618833;47;19975;-75
2023/12/25 07:08:28;;;;;;;;;;;10.80;99.90;;;;;;2619156;47;19957;-75
2023/12/25 07:10:58;;;;;;;;;;;10.80;99.90;;;;;;2619119;54;19939;-75
2023/12/25 07:13:33;;;;;;;;;;;10.80;99.90;;;;;;2619435;54;19986;-74
2023/12/25 07:16:03;;;;;;;;;;;10.70;99.90;;;;;;2618271;54;19990;-76
2023/12/25 07:18:33;;;;;;;;;;;10.70;99.90;;;;;;2616512;54;19954;-74
2023/12/25 07:21:03;;;;;;;;;;;10.70;99.90;;;;;;2617381;54;19954;-75
2023/12/25 07:23:33;;;;;;;;;;;10.70;99.90;;;;;;2619409;47;19946;-75
2023/12/25 07:26:05;;;;;;;;;;;10.70;99.90;;;;;;2617576;47;19945;-75
2023/12/25 07:28:37;;;;;;;;;;;10.70;99.90;;;;;;2617529;47;19938;-75
2023/12/25 07:31:07;;;;;;;;;;;10.60;99.90;;;;;;2615404;46;20029;-75
2023/12/25 07:33:47;;;;;;;;;;;10.60;99.90;;;;;;2617344;54;19946;-75
2023/12/25 07:36:17;;;;;;;;;;;10.70;99.90;;;;;;2618188;51;19953;-75
2023/12/25 07:38:47;;;;;;;;;;;10.60;99.90;;;;;;2619644;47;20039;-75
2023/12/25 07:41:17;;;;;;;;;;;10.70;99.90;;;;;;2619814;47;19946;-76
2023/12/25 07:43:50;;;;;;;;;;;10.60;99.90;;;;;;2618142;39;20420;-78
2023/12/25 07:46:20;;;;;;;;;;;10.50;99.90;;;;;;2626446;47;19923;-81
2023/12/25 07:48:51;;;;;;;;;;;10.70;99.90;;;;;;2628645;47;19938;-83
2023/12/25 07:51:21;;;;;;;;;;;10.60;99.90;;;;;;2627798;47;19998;-84
2023/12/25 07:53:51;;;;;;;;;;;10.60;99.90;;;;;;2625771;47;19972;-79
2023/12/25 07:56:21;;;;;;;;;;;10.60;99.90;;;;;;2622587;47;19950;-79
2023/12/25 07:58:54;;;;;;;;;;;10.60;99.90;;;;;;2621753;54;19947;-80
2023/12/25 08:01:24;;;;;;;;;;;10.60;99.90;;;;;;2623216;47;20017;-80
2023/12/25 08:03:54;;;;;;;;;;;10.60;99.90;;;;;;2624900;54;19946;-82
2023/12/25 08:06:24;;;;;;;;;;;10.60;99.90;;;;;;2630572;54;19964;-81
2023/12/25 08:08:54;;;;;;;;;;;10.60;99.90;;;;;;2629442;47;19954;-81
2023/12/25 08:11:25;;;;;;;;;;;10.60;99.90;;;;;;2626013;47;19947;-81
2023/12/25 08:13:58;;;;;;;;;;;10.60;99.90;;;;;;2626041;54;19947;-81
2023/12/25 08:16:27;;;;;;;;;;;10.60;99.90;;;;;;2626477;50;19963;-80
2023/12/25 08:18:57;;;;;;;;;;;10.90;99.90;;;;;;2627019;54;19943;-82
2023/12/25 08:21:28;;;;;;;;;;;10.60;99.90;;;;;;2629815;47;19939;-81
2023/12/25 08:23:58;;;;;;;;;;;10.60;99.90;;;;;;2628187;47;19942;-83
2023/12/25 08:26:29;;;;;;;;;;;10.60;99.90;;;;;;2630885;54;19939;-80
2023/12/25 08:29:01;;;;;;;;;;;10.60;99.90;;;;;;2626401;54;20528;-76
2023/12/25 08:31:31;;;;;;;;;;;11.70;99.90;;;;;;2618714;54;19945;-73
2023/12/25 08:34:01;;;;;;;;;;;10.60;99.90;;;;;;2618078;47;19990;-76
2023/12/25 08:36:31;;;;;;;;;;;10.50;99.90;;;;;;2618598;54;19939;-76
2023/12/25 08:39:00;;;;;;;;;;;10.50;99.90;;;;;;2618255;46;20528;-75
2023/12/25 08:41:30;;;;;;;;;;;10.50;99.90;;;;;;2624023;47;19950;-73
2023/12/25 08:44:02;;;;;;;;;;;10.50;99.90;;;;;;2620229;39;20931;-74
2023/12/25 08:46:32;;;;;;;;;;;10.50;99.90;;;;;;2622319;54;19987;-75
2023/12/25 08:49:02;;;;;;;;;;;10.50;99.90;;;;;;2619901;47;20402;-75
2023/12/25 08:51:32;;;;;;;;;;;10.60;99.90;;;;;;2619707;54;19989;-77
2023/12/25 08:54:02;;;;;;;;;;;10.60;99.90;;;;;;2617991;47;20059;-76
2023/12/25 08:56:32;;;;;;;;;;;10.60;99.90;;;;;;2620340;39;20341;-75
2023/12/25 08:59:05;;;;;;;;;;;10.60;99.90;;;;;;2619169;47;19946;-74
2023/12/25 09:01:35;;;;;;;;;;;10.70;99.90;;;;;;2618300;54;20062;-75
2023/12/25 09:04:05;;;;;;;;;;;10.50;99.90;;;;;;2616178;47;19961;-73
2023/12/25 09:06:35;;;;;;;;;;;10.70;99.90;;;;;;2618871;47;19954;-73
2023/12/25 09:09:05;;;;;;;;;;;10.70;99.90;;;;;;2620867;54;19954;-72
2023/12/25 09:11:34;;;;;;;;;;;10.80;99.90;;;;;;2624256;54;19954;-74
2023/12/25 09:14:06;;;;;;;;;;;10.80;99.90;;;;;;2618060;54;20066;-74
2023/12/25 09:16:37;;;;;;;;;;;10.80;99.90;;;;;;2618437;54;19942;-76
2023/12/25 09:19:06;;;;;;;;;;;10.80;99.90;;;;;;2618606;39;20381;-76
2023/12/25 09:21:39;;;;;;;;;;;10.80;99.90;;;;;;2624407;47;19923;-78
2023/12/25 09:24:09;;;;;;;;;;;10.80;99.90;;;;;;2627106;47;19994;-77
2023/12/25 09:26:39;;;;;;;;;;;10.70;99.90;;;;;;2625593;47;19942;-77
2023/12/25 09:29:11;;;;;;;;;;;10.80;99.90;;;;;;2621882;47;19950;-75
2023/12/25 09:31:41;;;;;;;;;;;10.80;99.90;;;;;;2619093;46;19945;-73
2023/12/25 09:34:12;;;;;;;;;;;10.80;99.90;;;;;;2617845;46;19947;-74
2023/12/25 09:36:42;;;;;;;;;;;10.80;99.90;;;;;;2619327;47;20041;-74
2023/12/25 09:39:12;;;;;;;;;;;10.80;99.90;;;;;;2617456;47;21087;-74
2023/12/25 09:41:42;;;;;;;;;;;10.80;99.90;;;;;;2612837;47;19970;-75
2023/12/25 09:44:14;;;;;;;;;;;10.80;99.90;;;;;;2599708;54;19993;-74
2023/12/25 09:46:45;;;;;;;;;;;10.80;99.90;;;;;;2603853;47;19954;-74
2023/12/25 09:49:15;;;;;;;;;;;10.80;99.90;;;;;;2602812;54;19951;-74
2023/12/25 09:51:46;;;;;;;;;;;10.80;99.90;;;;;;2604565;47;19990;-74
2023/12/25 09:54:16;;;;;;;;;;;10.80;99.90;;;;;;2608636;54;21982;-74
2023/12/25 09:56:46;;;;;;;;;;;10.80;99.90;;;;;;2609666;47;20058;-74
2023/12/25 09:59:19;;;;;;;;;;;10.80;99.90;;;;;;2608089;54;19953;-75
2023/12/25 10:01:49;;;;;;;;;;;10.80;99.90;;;;;;2607679;54;19951;-74
2023/12/25 10:04:19;;;;;;;;;;;10.90;99.90;;;;;;2603650;46;19951;-74
2023/12/25 10:06:49;;;;;;;;;;;10.80;99.90;;;;;;2608461;47;20066;-74
2023/12/25 10:09:19;;;;;;;;;;;10.80;99.90;;;;;;2607163;47;19951;-74
2023/12/25 10:11:49;;;;;;;;;;;10.80;99.90;;;;;;2607074;47;19954;-76
2023/12/25 10:14:22;;;;;;;;;;;10.90;99.90;;;;;;2607050;46;20015;-75
2023/12/25 10:17:00;;;;;;;;;;;10.90;99.90;;;;;;2605854;47;19947;-75
2023/12/25 10:23:04;;;;;;;;;;;10.40;99.90;;;;;;2615982;39;20459;-75
2023/12/25 10:25:51;;;;;;;;;;;10.60;99.90;;;;;;2609737;54;19954;-75
2023/12/25 10:28:22;;;;;;;;;;;10.90;99.90;;;;;;2609378;54;19934;-74
2023/12/25 10:31:03;;;;;;;;;;;10.90;99.90;;;;;;2615501;54;20041;-76
2023/12/25 10:46:52;;;;;;;;;;;11.00;99.90;;;;;;2611780;54;19949;-74
2023/12/25 10:49:25;;;;;;;;;;;11.00;99.90;;;;;;2590824;47;20339;-78
2023/12/25 10:51:56;;;;;;;;;;;11.00;99.90;;;;;;2626812;46;19938;-78
2023/12/25 10:54:27;;;;;;;;;;;11.00;99.90;;;;;;2623247;54;19969;-76
2023/12/25 10:56:58;;;;;;;;;;;11.00;99.90;;;;;;2622044;47;19939;-78
2023/12/25 10:59:30;;;;;;;;;;;11.00;99.90;;;;;;2626942;47;19919;-77
2023/12/25 11:02:06;;;;;;;;;;;11.00;99.90;;;;;;2628515;47;19949;-79
2023/12/25 11:04:40;;;;;;;;;;;11.00;99.90;;;;;;2626410;54;19983;-73
2023/12/25 11:12:35;;;;;;;;;;;11.10;99.90;;;;;;2628295;54;19970;-74
2023/12/25 11:17:45;;;;;;;;;;;11.20;99.90;;;;;;2618444;54;20005;-73
2023/12/25 11:35:17;;;;;;;;;;;11.20;99.90;;;;;;2481833;38;52236;-74
2023/12/25 11:40:55;;;;;;;;;;;10.30;99.90;;;;;;2612147;54;19959;-79
2023/12/25 11:46:19;;;;;;;;;;;11.90;99.90;;;;;;2632163;54;19930;-76
2023/12/25 12:13:52;;;;;;;;;;;11.20;99.90;;;;;;2606032;54;19957;-75
2023/12/25 12:16:27;;;;;;;;;;;11.20;99.90;;;;;;2628752;54;19923;-75
2023/12/25 12:40:18;;;;;;;;;;;11.20;99.90;;;;;;2595555;54;19950;-74
2023/12/25 12:43:08;;;;;;;;;;;11.20;99.90;;;;;;2622024;54;19959;-75
2023/12/25 12:45:50;;;;;;;;;;;11.30;99.90;;;;;;2621650;54;19939;-74
2023/12/25 12:51:20;;;;;;;;;;;11.30;99.90;;;;;;2617259;54;19973;-76
2023/12/25 12:56:53;;;;;;;;;;;;;;;;;;;;;
2023/12/25 12:59:33;;;;;;;;;;;11.30;99.90;;;;;;2613913;54;19946;-77
2023/12/25 13:02:08;;;;;;;;;;;11.30;99.90;;;;;;2621409;47;19938;-76
2023/12/25 13:07:28;;;;;;;;;;;11.30;99.90;;;;;;2629254;54;19947;-75
2023/12/25 13:12:54;;;;;;;;;;;11.30;99.90;;;;;;2626126;54;19971;-74
2023/12/25 13:18:05;;;;;;;;;;;11.30;99.90;;;;;;2617869;54;19931;-71
2023/12/25 13:20:36;;;;;;;;;;;11.30;99.90;;;;;;2625004;54;19998;-75
2023/12/25 13:23:06;;;;;;;;;;;11.30;99.90;;;;;;2625158;39;20369;-75
2023/12/25 13:25:36;;;;;;;;;;;11.30;99.90;;;;;;2622211;47;19965;-75
2023/12/25 13:28:06;;;;;;;;;;;11.30;99.90;;;;;;2623850;47;19945;-75
2023/12/25 13:30:36;;;;;;;;;;;11.30;99.90;;;;;;2623452;47;19945;-73
2023/12/25 13:33:09;;;;;;;;;;;11.30;99.90;;;;;;2623624;54;19946;-74
2023/12/25 13:35:40;;;;;;;;;;;11.30;99.90;;;;;;2623050;47;19961;-74
2023/12/25 13:38:11;;;;;;;;;;;11.40;99.90;;;;;;2625939;54;19985;-74
2023/12/25 13:40:41;;;;;;;;;;;11.30;99.90;;;;;;2626855;54;19950;-76
2023/12/25 13:43:12;;;;;;;;;;;11.30;99.90;;;;;;2626241;47;19962;-74
2023/12/25 13:45:43;;;;;;;;;;;11.30;99.90;;;;;;2626453;54;20552;-74
2023/12/25 13:48:15;;;;;;;;;;;11.40;99.90;;;;;;2625189;47;19938;-75
2023/12/25 13:50:54;;;;;;;;;;;11.30;99.90;;;;;;2623285;46;19945;-75
2023/12/25 13:53:24;;;;;;;;;;;11.30;99.90;;;;;;2623719;47;19946;-73
2023/12/25 13:55:54;;;;;;;;;;;11.30;99.90;;;;;;2622735;54;19950;-74
2023/12/25 13:58:24;;;;;;;;;;;11.40;99.90;;;;;;2621298;39;20708;-75
2023/12/25 14:00:54;;;;;;;;;;;11.30;99.90;;;;;;2621108;47;19946;-77
2023/12/25 14:03:26;;;;;;;;;;;11.40;99.90;;;;;;2621993;54;20026;-75
2023/12/25 14:05:57;;;;;;;;;;;11.30;99.90;;;;;;2621586;46;19958;-76
2023/12/25 14:08:26;;;;;;;;;;;11.30;99.90;;;;;;2621408;47;20061;-75
2023/12/25 14:10:56;;;;;;;;;;;11.30;99.90;;;;;;2621066;47;19946;-76
2023/12/25 14:13:27;;;;;;;;;;;11.30;99.90;;;;;;2621121;54;19947;-76
2023/12/25 14:15:58;;;;;;;;;;;11.30;99.90;;;;;;2621034;54;19950;-76
2023/12/25 14:18:30;;;;;;;;;;;11.30;99.90;;;;;;2620206;47;19947;-76
2023/12/25 14:21:00;;;;;;;;;;;11.30;99.90;;;;;;2619429;54;20072;-75
2023/12/25 14:23:30;;;;;;;;;;;11.30;99.90;;;;;;2618467;47;19954;-76
2023/12/25 14:26:00;;;;;;;;;;;11.40;99.90;;;;;;2618362;47;19939;-76
2023/12/25 14:28:29;;;;;;;;;;;11.40;99.90;;;;;;2617667;39;20371;-76
2023/12/25 14:33:33;;;;;;;;;;;11.40;99.90;;;;;;2617411;47;19954;-75
2023/12/25 14:36:04;;;;;;;;;;;11.40;99.90;;;;;;2624805;54;19943;-74
2023/12/25 14:38:35;;;;;;;;;;;11.40;99.90;;;;;;2628564;54;19934;-75
2023/12/25 14:41:06;;;;;;;;;;;11.40;99.90;;;;;;2625858;47;19930;-74
2023/12/25 14:43:35;;;;;;;;;;;11.30;99.90;;;;;;2625359;47;20046;-76
2023/12/25 14:46:05;;;;;;;;;;;11.40;99.90;;;;;;2619472;54;19951;-78
2023/12/25 14:48:52;;;;;;;;;;;11.30;99.90;;;;;;2618779;47;19939;-77
2023/12/25 14:51:23;;;;;;;;;;;11.30;99.90;;;;;;2616961;47;20506;-76
2023/12/25 14:53:56;;;;;;;;;;;10.80;99.90;;;;;;2616304;47;19954;-75
2023/12/25 14:56:26;;;;;;;;;;;11.30;99.90;;;;;;2616891;54;19972;-75
2023/12/25 14:58:56;;;;;;;;;;;11.30;99.90;;;;;;2618954;54;20035;-77
2023/12/25 15:01:26;;;;;;;;;;;11.30;99.90;;;;;;2616667;39;20364;-76
2023/12/25 15:06:40;;;;;;;;;;;11.30;99.90;;;;;;2604576;54;19972;-75
2023/12/25 15:09:19;;;;;;;;;;;11.30;99.90;;;;;;2616298;54;19954;-75
2023/12/25 15:11:49;;;;;;;;;;;11.30;99.90;;;;;;2615161;47;20040;-75
2023/12/25 15:14:19;;;;;;;;;;;11.30;99.90;;;;;;2614209;54;19958;-75
2023/12/25 15:16:49;;;;;;;;;;;11.30;99.90;;;;;;2615335;47;20002;-75
2023/12/25 15:19:19;;;;;;;;;;;11.40;99.90;;;;;;2618181;47;19947;-77
2023/12/25 15:21:51;;;;;;;;;;;11.30;99.90;;;;;;2618141;47;19992;-74
2023/12/25 15:24:21;;;;;;;;;;;11.40;99.90;;;;;;2615897;54;19958;-75
2023/12/25 15:26:51;;;;;;;;;;;11.40;99.90;;;;;;2618721;39;20345;-76
2023/12/25 15:29:21;;;;;;;;;;;11.40;99.90;;;;;;2617182;54;19946;-76
2023/12/25 15:31:50;;;;;;;;;;;11.40;99.90;;;;;;2617370;47;19947;-73
2023/12/25 15:34:20;;;;;;;;;;;11.40;99.90;;;;;;2617292;54;20480;-78
2023/12/25 15:36:53;;;;;;;;;;;11.40;99.90;;;;;;2617320;39;20353;-76
2023/12/25 15:39:23;;;;;;;;;;;11.40;99.90;;;;;;2619709;47;19994;-75
2023/12/25 15:41:53;;;;;;;;;;;11.40;99.90;;;;;;2623538;47;19951;-76
2023/12/25 15:44:23;;;;;;;;;;;11.40;99.90;;;;;;2619980;54;19939;-76
2023/12/25 15:46:55;;;;;;;;;;;11.50;99.90;;;;;;2622195;39;20383;-76
2023/12/25 15:49:24;;;;;;;;;;;11.40;99.90;;;;;;2618907;54;20044;-76
2023/12/25 15:51:57;;;;;;;;;;;11.50;99.90;;;;;;2617832;54;19946;-77
2023/12/25 15:54:27;;;;;;;;;;;11.50;99.90;;;;;;2617133;54;20037;-76
2023/12/25 15:56:57;;;;;;;;;;;11.60;99.90;;;;;;2618067;54;19947;-76
2023/12/25 15:59:27;;;;;;;;;;;12.30;99.90;;;;;;2617060;47;19953;-75
2023/12/25 16:02:01;;;;;;;;;;;11.50;99.90;;;;;;2616862;47;19954;-76
2023/12/25 16:04:31;;;;;;;;;;;11.50;99.90;;;;;;2617551;54;20004;-75
2023/12/25 16:07:03;;;;;;;;;;;11.50;99.90;;;;;;2618550;47;20421;-76
2023/12/25 16:09:33;;;;;;;;;;;11.50;99.90;;;;;;2618149;47;19996;-75
2023/12/25 16:12:02;;;;;;;;;;;11.50;99.90;;;;;;2618896;47;19996;-76
2023/12/25 16:14:32;;;;;;;;;;;11.40;99.90;;;;;;2617567;54;19953;-76
2023/12/25 16:17:02;;;;;;;;;;;11.40;99.90;;;;;;2618335;46;19962;-76
2023/12/25 16:22:16;;;;;;;;;;;11.50;99.90;;;;;;2609685;39;20374;-75
2023/12/25 16:24:46;;;;;;;;;;;11.50;99.90;;;;;;2616556;47;19953;-76
2023/12/25 16:27:15;;;;;;;;;;;11.50;99.90;;;;;;2618024;54;19938;-75
2023/12/25 16:29:46;;;;;;;;;;;11.50;99.90;;;;;;2618172;47;19947;-77
2023/12/25 16:32:16;;;;;;;;;;;11.40;99.90;;;;;;2618469;47;20429;-74
2023/12/25 16:34:46;;;;;;;;;;;11.40;99.90;;;;;;2617652;47;19993;-75
2023/12/25 16:37:18;;;;;;;;;;;11.40;99.90;;;;;;2617669;54;19955;-75
2023/12/25 16:39:48;;;;;;;;;;;11.40;99.90;;;;;;2613711;54;19954;-76
2023/12/25 16:42:17;;;;;;;;;;;11.40;99.90;;;;;;2609689;47;20002;-76